Time;durP1;ratioP1;P1;durP2;ratioP2;P2;SDS_P1;SDS_P2;PMS_P1;PMS_P2;Temp;Humidity;BMP_temperature;BMP_pressure;BME280_temperature;BME280_humidity;BME280_pressure;Samples;Min_cycle;Max_cycle;Signal;HPM_P1;HPM_P2
2023/08/22 00:00:40;;;;;;;2.25;1.48;;;19.70;99.90;;;;;;5072775;28;20029;-42
2023/08/22 00:03:06;;;;;;;3.38;1.70;;;19.70;99.90;;;;;;5073145;28;20027;-41
2023/08/22 00:05:32;;;;;;;1.75;1.50;;;19.70;99.90;;;;;;5072968;28;20020;-42
2023/08/22 00:08:05;;;;;;;2.65;1.70;;;19.70;99.90;;;;;;5072906;28;20055;-41
2023/08/22 00:10:34;;;;;;;8.20;2.95;;;19.70;99.90;;;;;;5073114;28;20025;-62
2023/08/22 00:13:00;;;;;;;5.25;2.35;;;19.60;99.90;;;;;;5072837;28;20097;-40
2023/08/22 00:15:25;;;;;;;5.35;2.22;;;19.60;99.90;;;;;;5071808;28;20052;-41
2023/08/22 00:17:51;;;;;;;5.95;2.20;;;19.50;99.90;;;;;;5072607;28;20515;-41
2023/08/22 00:20:18;;;;;;;3.10;1.95;;;19.50;99.90;;;;;;5072787;28;20469;-40
2023/08/22 00:22:43;;;;;;;5.07;2.07;;;19.50;99.90;;;;;;5053500;28;20033;-41
2023/08/22 00:25:10;;;;;;;2.95;1.80;;;19.50;99.90;;;;;;5072504;28;20297;-40
2023/08/22 00:27:37;;;;;;;3.58;2.00;;;19.50;99.90;;;;;;5072691;28;20074;-42
2023/08/22 00:30:03;;;;;;;7.32;2.17;;;19.50;99.90;;;;;;5072684;28;20069;-40
2023/08/22 00:32:30;;;;;;;4.78;1.60;;;19.60;99.90;;;;;;5071675;28;20443;-40
2023/08/22 00:34:56;;;;;;;4.37;1.80;;;19.60;99.90;;;;;;5072648;28;20021;-41
2023/08/22 00:37:22;;;;;;;5.28;2.40;;;19.50;99.90;;;;;;5072611;28;20496;-41
2023/08/22 00:39:48;;;;;;;4.40;1.90;;;19.60;99.90;;;;;;5072526;28;20036;-40
2023/08/22 00:42:13;;;;;;;3.17;2.13;;;19.50;99.90;;;;;;5066542;28;20028;-41
2023/08/22 00:44:39;;;;;;;2.38;1.75;;;19.60;99.90;;;;;;5063489;28;20033;-40
2023/08/22 00:47:05;;;;;;;2.60;1.90;;;19.50;99.90;;;;;;5069057;28;20029;-43
2023/08/22 00:49:32;;;;;;;5.72;1.90;;;19.50;99.90;;;;;;5071720;28;20079;-46
2023/08/22 00:51:59;;;;;;;4.90;1.90;;;19.50;99.90;;;;;;5072460;28;20020;-41
2023/08/22 00:54:26;;;;;;;5.78;1.73;;;19.40;99.90;;;;;;5072330;28;20033;-43
2023/08/22 00:56:53;;;;;;;3.05;1.80;;;19.40;99.90;;;;;;5072002;28;20427;-41
2023/08/22 00:59:19;;;;;;;2.43;1.80;;;19.40;99.90;;;;;;5072478;28;20087;-41
2023/08/22 01:01:46;;;;;;;5.28;2.15;;;19.40;99.90;;;;;;5072276;28;20021;-43
2023/08/22 01:04:11;;;;;;;3.72;2.17;;;19.40;99.90;;;;;;5071005;28;20028;-40
2023/08/22 01:06:52;;;;;;;2.13;1.50;;;19.40;99.90;;;;;;5070746;28;20062;-43
2023/08/22 01:09:29;;;;;;;4.65;2.00;;;19.40;99.90;;;;;;5072331;28;20021;-47
2023/08/22 01:12:14;;;;;;;1.38;1.27;;;19.30;99.90;;;;;;5072053;28;20032;-43
2023/08/22 01:14:45;;;;;;;5.00;1.65;;;19.30;99.90;;;;;;5072020;28;20512;-54
2023/08/22 01:17:13;;;;;;;1.48;1.35;;;19.40;99.90;;;;;;5072247;28;20477;-51
2023/08/22 01:19:39;;;;;;;6.43;1.70;;;19.30;99.90;;;;;;5072100;28;20028;-51
2023/08/22 01:22:04;;;;;;;2.42;1.35;;;19.30;99.90;;;;;;5071064;28;20032;-49
2023/08/22 01:24:30;;;;;;;2.42;1.63;;;19.30;99.90;;;;;;5071781;28;20059;-49
2023/08/22 01:26:56;;;;;;;3.50;1.25;;;19.20;99.90;;;;;;5068001;28;20032;-52
2023/08/22 01:29:37;;;;;;;3.78;1.70;;;19.20;99.90;;;;;;5071179;28;20028;-52
2023/08/22 01:32:16;;;;;;;3.15;1.60;;;19.10;99.90;;;;;;5073058;28;20028;-51
2023/08/22 01:34:44;;;;;;;10.27;2.03;;;19.10;99.90;;;;;;5068131;28;20032;-47
2023/08/22 01:37:11;;;;;;;;;;;19.10;99.90;;;;;;5073403;28;20028;-53
2023/08/22 01:39:38;;;;;;;5.20;2.10;;;19.10;99.90;;;;;;5068387;28;19931;-53
2023/08/22 01:42:05;;;;;;;4.45;1.42;;;19.00;99.90;;;;;;5075659;28;20036;-48
2023/08/22 01:44:31;;;;;;;3.92;1.50;;;19.00;99.90;;;;;;5075395;28;20111;-53
2023/08/22 01:46:56;;;;;;;3.95;2.13;;;19.00;99.90;;;;;;5074210;28;20519;-54
2023/08/22 01:49:22;;;;;;;4.57;2.08;;;19.00;99.90;;;;;;5075402;28;20036;-54
2023/08/22 01:51:48;;;;;;;2.45;2.03;;;19.00;99.90;;;;;;5087883;28;20370;-53
2023/08/22 01:54:14;;;;;;;3.13;1.65;;;19.00;99.90;;;;;;5083416;28;20028;-53
2023/08/22 01:56:40;;;;;;;7.60;1.95;;;19.00;99.90;;;;;;5073110;28;20040;-52
2023/08/22 01:59:05;;;;;;;4.85;1.98;;;19.10;99.90;;;;;;5074159;28;20477;-53
2023/08/22 02:01:31;;;;;;;4.47;2.08;;;19.10;99.90;;;;;;5070485;28;20039;-53
2023/08/22 02:04:03;;;;;;;2.65;2.17;;;19.10;99.90;;;;;;5073529;28;20530;-54
2023/08/22 02:06:29;;;;;;;8.05;2.03;;;19.10;99.90;;;;;;5075282;28;20099;-40
2023/08/22 02:08:54;;;;;;;6.03;2.22;;;19.10;99.90;;;;;;5073868;28;20120;-40
2023/08/22 02:11:20;;;;;;;4.35;1.65;;;19.10;99.90;;;;;;5073707;28;20027;-40
2023/08/22 02:13:46;;;;;;;3.75;1.92;;;19.10;99.90;;;;;;5073809;28;20033;-44
2023/08/22 02:16:12;;;;;;;5.55;1.85;;;19.10;99.90;;;;;;5073947;28;20020;-42
2023/08/22 02:18:38;;;;;;;2.97;1.90;;;19.10;99.90;;;;;;5073837;28;20060;-40
2023/08/22 02:21:03;;;;;;;5.65;1.85;;;19.10;99.90;;;;;;5073427;28;20029;-41
2023/08/22 02:23:31;;;;;;;1.85;1.65;;;19.10;99.90;;;;;;5073804;28;20497;-43
2023/08/22 02:25:57;;;;;;;5.10;1.73;;;19.10;99.90;;;;;;5074440;28;20036;-56
2023/08/22 02:28:22;;;;;;;4.40;2.15;;;19.10;99.90;;;;;;5074650;28;20024;-51
2023/08/22 02:30:53;;;;;;;3.83;2.67;;;19.10;99.90;;;;;;5073443;28;20027;-42
2023/08/22 02:33:18;;;;;;;4.32;2.13;;;19.00;99.90;;;;;;5074639;28;20111;-53
2023/08/22 02:35:44;;;;;;;4.00;2.17;;;19.00;99.90;;;;;;5056569;28;20125;-54
2023/08/22 02:38:09;;;;;;;4.15;2.33;;;19.00;99.90;;;;;;5074342;28;20085;-52
2023/08/22 02:40:35;;;;;;;6.22;2.78;;;18.90;99.90;;;;;;5071294;28;20012;-52
2023/08/22 02:43:01;;;;;;;2.75;1.90;;;18.90;99.90;;;;;;5073601;28;20036;-52
2023/08/22 02:45:26;;;;;;;4.43;2.97;;;18.90;99.90;;;;;;5074364;28;20024;-54
2023/08/22 02:47:53;;;;;;;5.60;2.65;;;18.80;99.90;;;;;;5074267;28;20032;-53
2023/08/22 02:50:19;;;;;;;8.77;2.93;;;18.80;99.90;;;;;;5072825;28;20385;-52
2023/08/22 02:52:44;;;;;;;5.70;3.22;;;18.80;99.90;;;;;;5074144;28;20036;-52
2023/08/22 02:55:10;;;;;;;5.57;3.20;;;18.70;99.90;;;;;;5072702;28;20425;-51
2023/08/22 02:57:36;;;;;;;6.63;3.80;;;18.70;99.90;;;;;;5074057;28;20036;-51
2023/08/22 03:00:02;;;;;;;4.53;3.42;;;18.70;99.90;;;;;;5072879;28;20485;-52
2023/08/22 03:02:27;;;;;;;5.80;3.58;;;18.70;99.90;;;;;;5071398;28;20561;-54
2023/08/22 03:04:53;;;;;;;8.38;4.70;;;18.70;99.90;;;;;;5073930;28;20031;-52
2023/08/22 03:07:19;;;;;;;7.47;4.03;;;18.70;99.90;;;;;;5073875;28;20028;-52
2023/08/22 03:09:45;;;;;;;11.13;4.97;;;18.60;99.90;;;;;;5072607;28;20077;-51
2023/08/22 03:12:11;;;;;;;6.68;4.55;;;18.60;99.90;;;;;;5072740;28;20024;-56
2023/08/22 03:14:36;;;;;;;9.70;5.45;;;18.60;99.90;;;;;;5074009;28;20446;-40
2023/08/22 03:17:02;;;;;;;6.70;4.18;;;18.70;99.90;;;;;;5073677;28;20025;-46
2023/08/22 03:19:27;;;;;;;14.48;5.28;;;18.70;99.90;;;;;;5072778;28;20489;-42
2023/08/22 03:21:53;;;;;;;7.68;3.70;;;18.70;99.90;;;;;;5073836;28;20502;-47
2023/08/22 03:24:18;;;;;;;8.73;4.65;;;18.70;99.90;;;;;;5071928;28;20055;-53
2023/08/22 03:26:44;;;;;;;7.85;4.68;;;18.70;99.90;;;;;;5073497;28;20107;-52
2023/08/22 03:29:10;;;;;;;6.72;4.53;;;18.70;99.90;;;;;;5072196;28;20064;-51
2023/08/22 03:31:35;;;;;;;9.60;4.68;;;18.70;99.90;;;;;;5073415;28;20025;-52
2023/08/22 03:34:01;;;;;;;6.30;4.07;;;18.70;99.90;;;;;;5073403;28;20164;-51
2023/08/22 03:36:27;;;;;;;5.88;3.33;;;18.70;99.90;;;;;;5073338;28;20477;-52
2023/08/22 03:38:53;;;;;;;8.02;3.63;;;18.70;99.90;;;;;;5072259;28;20511;-49
2023/08/22 03:41:18;;;;;;;6.70;3.60;;;18.70;99.90;;;;;;5072737;28;20028;-51
2023/08/22 03:43:44;;;;;;;8.20;3.83;;;18.70;99.90;;;;;;5073090;28;20358;-53
2023/08/22 03:46:10;;;;;;;13.00;4.43;;;18.70;99.90;;;;;;5073058;28;20079;-57
2023/08/22 03:48:35;;;;;;;7.85;4.40;;;18.70;99.90;;;;;;5071805;28;20426;-48
2023/08/22 03:51:05;;;;;;;7.90;3.97;;;18.60;99.90;;;;;;5072477;28;20027;-52
2023/08/22 03:53:31;;;;;;;9.90;4.05;;;18.60;99.90;;;;;;5055164;28;20016;-52
2023/08/22 03:55:57;;;;;;;5.82;3.58;;;18.70;99.90;;;;;;5071528;28;20027;-40
2023/08/22 03:58:22;;;;;;;8.35;3.97;;;18.70;99.90;;;;;;5073022;28;20024;-40
2023/08/22 04:00:48;;;;;;;10.27;5.00;;;18.70;99.90;;;;;;5072991;28;20108;-42
2023/08/22 04:03:14;;;;;;;15.32;6.03;;;18.60;99.90;;;;;;5054839;28;20477;-42
2023/08/22 04:05:42;;;;;;;7.50;4.63;;;18.60;99.90;;;;;;5072056;28;20021;-40
2023/08/22 04:08:07;;;;;;;4.82;3.55;;;18.60;99.90;;;;;;5070286;28;20358;-41
2023/08/22 04:10:33;;;;;;;9.18;4.40;;;18.60;99.90;;;;;;5049008;28;20086;-42
2023/08/22 04:12:59;;;;;;;8.27;4.32;;;18.60;99.90;;;;;;5072655;28;20032;-52
2023/08/22 04:15:24;;;;;;;11.50;4.50;;;18.60;99.90;;;;;;5072810;28;20024;-40
2023/08/22 04:17:50;;;;;;;10.63;4.93;;;18.60;99.90;;;;;;5064451;28;20539;-41
2023/08/22 04:20:15;;;;;;;9.82;4.18;;;18.60;99.90;;;;;;5070035;28;20035;-40
2023/08/22 04:22:41;;;;;;;6.70;4.28;;;18.60;99.90;;;;;;5071399;28;20063;-52
2023/08/22 04:25:11;;;;;;;8.48;4.15;;;18.60;99.90;;;;;;5068952;28;20497;-51
2023/08/22 04:27:37;;;;;;;10.77;4.30;;;18.60;99.90;;;;;;5070036;28;20025;-57
2023/08/22 04:30:04;;;;;;;7.28;3.50;;;18.60;99.90;;;;;;5053830;28;20033;-42
2023/08/22 04:32:29;;;;;;;9.30;3.80;;;18.60;99.90;;;;;;5068895;28;20055;-42
2023/08/22 04:34:55;;;;;;;7.38;3.28;;;18.60;99.90;;;;;;5072624;28;20064;-42
2023/08/22 04:37:21;;;;;;;6.30;3.53;;;18.60;99.90;;;;;;5071210;28;20031;-41
2023/08/22 04:39:47;;;;;;;7.28;3.92;;;18.60;99.90;;;;;;5072623;28;20028;-39
2023/08/22 04:42:13;;;;;;;12.57;5.05;;;18.60;99.90;;;;;;5072710;28;20465;-44
2023/08/22 04:44:39;;;;;;;8.48;4.35;;;18.50;99.90;;;;;;5072512;28;20384;-41
2023/08/22 04:47:04;;;;;;;4.70;3.75;;;18.50;99.90;;;;;;5071368;28;20389;-42
2023/08/22 04:49:30;;;;;;;15.90;5.47;;;18.50;99.90;;;;;;5072391;28;20043;-43
2023/08/22 04:51:55;;;;;;;5.90;3.65;;;18.50;99.90;;;;;;5072430;28;20039;-40
2023/08/22 04:54:21;;;;;;;7.43;4.13;;;18.50;99.90;;;;;;5071421;28;20579;-40
2023/08/22 04:56:47;;;;;;;9.05;4.35;;;18.50;99.90;;;;;;5071259;28;20102;-40
2023/08/22 04:59:12;;;;;;;5.75;4.05;;;18.50;99.90;;;;;;5072336;28;20033;-42
2023/08/22 05:01:38;;;;;;;11.52;4.65;;;18.50;99.90;;;;;;5071160;28;20138;-42
2023/08/22 05:04:04;;;;;;;10.63;4.22;;;18.50;99.90;;;;;;5055368;28;20024;-45
2023/08/22 05:06:30;;;;;;;6.35;3.70;;;18.50;99.90;;;;;;5057016;28;20037;-47
2023/08/22 05:08:55;;;;;;;10.38;3.72;;;18.50;99.90;;;;;;5073312;28;20501;-43
2023/08/22 05:11:21;;;;;;;8.60;4.80;;;18.50;99.90;;;;;;5075076;28;20028;-40
2023/08/22 05:13:47;;;;;;;5.88;3.83;;;18.50;99.90;;;;;;5076294;28;20024;-40
2023/08/22 05:16:12;;;;;;;7.60;4.10;;;18.50;99.90;;;;;;5075980;28;20020;-40
2023/08/22 05:18:38;;;;;;;7.63;3.90;;;18.50;99.90;;;;;;5073715;28;20042;-40
2023/08/22 05:21:04;;;;;;;9.57;4.13;;;18.40;99.90;;;;;;5075901;28;20032;-40
2023/08/22 05:23:30;;;;;;;6.40;4.05;;;18.40;99.90;;;;;;5074286;28;20070;-40
2023/08/22 05:25:56;;;;;;;7.15;4.05;;;18.50;99.90;;;;;;5075611;28;20068;-42
2023/08/22 05:28:21;;;;;;;6.80;4.28;;;18.50;99.90;;;;;;5074525;28;20056;-40
2023/08/22 05:30:47;;;;;;;6.93;3.90;;;18.50;99.90;;;;;;5075709;28;20028;-40
2023/08/22 05:33:13;;;;;;;6.72;3.67;;;18.60;99.90;;;;;;5074216;28;20030;-41
2023/08/22 05:35:38;;;;;;;16.05;3.72;;;18.60;99.90;;;;;;5073495;28;20040;-40
2023/08/22 05:38:04;;;;;;;11.02;3.70;;;18.60;99.90;;;;;;5072491;28;20556;-41
2023/08/22 05:40:30;;;;;;;7.13;3.83;;;18.70;99.90;;;;;;5074483;28;20484;-41
2023/08/22 05:42:56;;;;;;;4.90;2.60;;;18.80;99.90;;;;;;5075642;28;20036;-43
2023/08/22 05:45:22;;;;;;;7.40;3.00;;;18.90;99.90;;;;;;5074160;28;20073;-43
2023/08/22 05:47:47;;;;;;;4.93;2.53;;;18.90;99.90;;;;;;5064821;28;20122;-53
2023/08/22 05:50:13;;;;;;;6.70;3.35;;;19.00;99.90;;;;;;5074417;28;20069;-43
2023/08/22 05:52:39;;;;;;;4.15;2.75;;;19.10;99.90;;;;;;5074034;28;20024;-41
2023/08/22 05:55:06;;;;;;;8.45;3.05;;;19.10;99.90;;;;;;5075323;28;20032;-49
2023/08/22 05:57:32;;;;;;;14.33;3.93;;;19.20;99.90;;;;;;5073390;28;20515;-53
2023/08/22 05:59:58;;;;;;;3.72;3.28;;;19.20;99.90;;;;;;5075209;28;20103;-53
2023/08/22 06:02:24;;;;;;;8.55;3.42;;;19.20;99.90;;;;;;5074956;28;20111;-50
2023/08/22 06:04:50;;;;;;;8.80;3.95;;;19.30;99.90;;;;;;5075127;28;20067;-53
2023/08/22 06:07:15;;;;;;;7.10;3.38;;;19.30;99.90;;;;;;5073821;28;20044;-52
2023/08/22 06:09:41;;;;;;;7.30;3.45;;;19.30;99.90;;;;;;5075236;28;20639;-54
2023/08/22 06:12:08;;;;;;;9.70;3.80;;;19.40;99.90;;;;;;5074961;28;20032;-53
2023/08/22 06:14:33;;;;;;;9.75;3.35;;;19.40;99.90;;;;;;5074639;28;20037;-54
2023/08/22 06:16:59;;;;;;;7.43;2.88;;;19.50;99.90;;;;;;5072767;28;20032;-53
2023/08/22 06:19:25;;;;;;;9.68;3.40;;;19.50;99.90;;;;;;5074642;28;20480;-53
2023/08/22 06:21:50;;;;;;;7.78;3.47;;;19.60;99.90;;;;;;5073269;28;20033;-53
2023/08/22 06:24:16;;;;;;;10.68;3.70;;;19.80;99.90;;;;;;5074398;28;20592;-54
2023/08/22 06:26:42;;;;;;;7.88;3.47;;;20.00;99.90;;;;;;5069952;28;20370;-52
2023/08/22 06:29:08;;;;;;;6.13;3.55;;;20.20;99.90;;;;;;5073112;28;20024;-50
2023/08/22 06:31:34;;;;;;;5.70;3.63;;;20.30;99.90;;;;;;5074853;28;20104;-54
2023/08/22 06:34:00;;;;;;;5.65;3.05;;;20.40;99.90;;;;;;5056025;28;20116;-53
2023/08/22 06:36:25;;;;;;;8.52;4.35;;;20.50;99.90;;;;;;5074321;28;20396;-51
2023/08/22 06:38:52;;;;;;;9.10;4.03;;;20.60;99.90;;;;;;5074380;28;20155;-53
2023/08/22 06:41:18;;;;;;;9.47;3.73;;;20.60;99.90;;;;;;5069882;28;20039;-40
2023/08/22 06:43:44;;;;;;;10.88;3.97;;;20.60;99.90;;;;;;5055926;28;20033;-40
2023/08/22 06:46:10;;;;;;;6.97;3.05;;;20.60;99.90;;;;;;5072559;28;20386;-66
2023/08/22 06:48:35;;;;;;;5.32;3.20;;;20.60;99.90;;;;;;5074541;28;20465;-42
2023/08/22 06:51:01;;;;;;;13.75;3.17;;;20.70;99.90;;;;;;5074226;28;20032;-42
2023/08/22 06:53:27;;;;;;;5.85;3.38;;;20.70;99.90;;;;;;5074012;28;20566;-40
2023/08/22 06:55:54;;;;;;;11.55;4.05;;;20.80;99.90;;;;;;5074065;28;20033;-41
2023/08/22 06:58:20;;;;;;;;;;;20.90;99.90;;;;;;5074388;28;20115;-41
2023/08/22 07:00:45;;;;;;;5.28;2.60;;;21.00;99.90;;;;;;5056056;28;19951;-54
2023/08/22 07:03:11;;;;;;;5.55;3.15;;;21.00;99.90;;;;;;5073172;28;20075;-54
2023/08/22 07:05:37;;;;;;;8.43;3.33;;;21.10;99.90;;;;;;5074075;28;20544;-52
2023/08/22 07:08:03;;;;;;;6.95;4.70;;;21.20;99.90;;;;;;5073830;28;20028;-56
2023/08/22 07:10:28;;;;;;;5.13;3.38;;;21.20;99.90;;;;;;5073382;28;20024;-42
2023/08/22 07:12:54;;;;;;;8.57;3.20;;;21.30;99.90;;;;;;5073790;28;20606;-41
2023/08/22 07:15:20;;;;;;;6.38;3.42;;;21.30;99.90;;;;;;5074193;28;20035;-52
2023/08/22 07:17:47;;;;;;;12.52;3.65;;;21.30;99.90;;;;;;5073637;28;20029;-51
2023/08/22 07:20:13;;;;;;;10.00;4.00;;;21.40;99.90;;;;;;5072578;28;20035;-52
2023/08/22 07:22:39;;;;;;;7.93;3.92;;;21.40;99.90;;;;;;5073411;28;20039;-53
2023/08/22 07:25:05;;;;;;;5.85;3.20;;;21.50;99.90;;;;;;5072655;28;20037;-48
2023/08/22 07:27:31;;;;;;;6.43;3.22;;;21.50;99.90;;;;;;5070473;28;20016;-50
2023/08/22 07:29:56;;;;;;;8.57;3.97;;;21.60;99.90;;;;;;5068964;28;20031;-53
2023/08/22 07:32:22;;;;;;;7.13;3.25;;;21.60;99.90;;;;;;5070436;28;20453;-50
2023/08/22 07:34:48;;;;;;;13.25;3.50;;;21.60;99.90;;;;;;5061981;28;20090;-47
2023/08/22 07:37:15;;;;;;;5.82;3.05;;;21.70;99.90;;;;;;5071262;28;20033;-55
2023/08/22 07:39:41;;;;;;;7.43;3.13;;;21.70;99.90;;;;;;5072562;28;20413;-51
2023/08/22 07:42:07;;;;;;;6.43;2.65;;;21.60;99.90;;;;;;5067911;28;20024;-52
2023/08/22 07:44:32;;;;;;;10.55;3.60;;;21.60;99.90;;;;;;5067231;28;20381;-39
2023/08/22 07:46:58;;;;;;;5.95;3.67;;;21.60;99.90;;;;;;5064942;28;20024;-40
2023/08/22 07:49:24;;;;;;;11.20;3.80;;;21.70;99.90;;;;;;5073171;28;20021;-40
2023/08/22 07:51:50;;;;;;;10.32;3.45;;;21.70;99.90;;;;;;5072963;28;20029;-43
2023/08/22 07:54:16;;;;;;;5.50;2.95;;;21.60;99.90;;;;;;5071994;28;20028;-40
2023/08/22 07:56:42;;;;;;;7.00;3.28;;;21.70;99.90;;;;;;5073263;28;20504;-42
2023/08/22 07:59:07;;;;;;;7.32;3.60;;;21.60;99.90;;;;;;5072909;28;20028;-44
2023/08/22 08:01:34;;;;;;;7.00;3.45;;;21.70;99.90;;;;;;5072702;28;20048;-42
2023/08/22 08:04:00;;;;;;;8.63;2.97;;;21.70;99.90;;;;;;5072615;28;20032;-42
2023/08/22 08:06:25;;;;;;;9.48;3.95;;;21.70;99.90;;;;;;5072977;28;20446;-43
2023/08/22 08:08:51;;;;;;;8.00;2.47;;;21.70;99.90;;;;;;5071108;28;20017;-40
2023/08/22 08:11:17;;;;;;;8.90;4.50;;;21.80;99.90;;;;;;5070850;28;20083;-39
2023/08/22 08:13:43;;;;;;;8.18;3.80;;;21.80;99.90;;;;;;5071449;28;20025;-39
2023/08/22 08:16:09;;;;;;;7.13;3.00;;;21.90;99.90;;;;;;5067542;28;20099;-43
2023/08/22 08:18:35;;;;;;;9.38;3.60;;;21.90;99.90;;;;;;5072735;28;20029;-40
2023/08/22 08:21:01;;;;;;;9.55;3.78;;;21.80;99.90;;;;;;5064855;28;20101;-40
2023/08/22 08:23:27;;;;;;;5.20;3.22;;;21.70;99.90;;;;;;5050581;28;20116;-43
2023/08/22 08:25:52;;;;;;;11.95;4.05;;;21.70;99.90;;;;;;5067237;28;20029;-41
2023/08/22 08:28:19;;;;;;;5.60;3.17;;;21.90;99.90;;;;;;5068151;28;20067;-41
2023/08/22 08:30:44;;;;;;;10.02;3.45;;;22.00;99.90;;;;;;5067554;28;20544;-42
2023/08/22 08:33:10;;;;;;;4.25;3.17;;;22.20;99.90;;;;;;5068711;28;20040;-40
2023/08/22 08:35:35;;;;;;;6.93;3.13;;;22.30;99.90;;;;;;5066623;28;20378;-40
2023/08/22 08:38:01;;;;;;;5.72;3.22;;;22.50;99.90;;;;;;5071670;28;20477;-42
2023/08/22 08:40:35;;;;;;;11.40;4.20;;;22.60;99.90;;;;;;5061391;28;20021;-41
2023/08/22 08:43:01;;;;;;;10.77;3.70;;;22.70;99.90;;;;;;5073841;28;20481;-42
2023/08/22 08:45:28;;;;;;;8.13;2.93;;;22.70;99.90;;;;;;5058207;28;20492;-45
2023/08/22 08:47:54;;;;;;;10.18;3.60;;;22.70;99.90;;;;;;5063951;28;20028;-44
2023/08/22 08:50:20;;;;;;;3.70;3.20;;;22.70;99.90;;;;;;5076530;28;20115;-42
2023/08/22 08:52:47;;;;;;;8.82;3.15;;;22.80;99.90;;;;;;5075988;28;20070;-46
2023/08/22 08:55:13;;;;;;;7.75;3.50;;;22.90;99.90;;;;;;5076504;28;20485;-43
2023/08/22 08:57:39;;;;;;;10.00;3.83;;;23.00;99.90;;;;;;5076363;28;20021;-45
2023/08/22 09:00:06;;;;;;;10.57;3.65;;;23.20;99.90;;;;;;5076239;28;20029;-41
2023/08/22 09:02:32;;;;;;;7.28;3.75;;;23.20;99.90;;;;;;5075713;28;20051;-43
2023/08/22 09:04:57;;;;;;;7.20;3.33;;;23.20;99.90;;;;;;5058389;28;20112;-44
2023/08/22 09:07:23;;;;;;;11.80;3.67;;;23.30;99.90;;;;;;5065504;28;20359;-40
2023/08/22 09:09:49;;;;;;;10.18;3.47;;;23.40;99.90;;;;;;5063737;28;20033;-40
2023/08/22 09:12:15;;;;;;;4.38;3.17;;;23.40;99.90;;;;;;5065644;28;20107;-42
2023/08/22 09:14:45;;;;;;;5.70;3.08;;;23.50;99.90;;;;;;5065602;28;20104;-44
2023/08/22 09:17:18;;;;;;;8.75;3.70;;;23.50;99.90;;;;;;5071378;28;20426;-43
2023/08/22 09:19:44;;;;;;;6.45;3.10;;;23.50;99.90;;;;;;5071568;28;20025;-43
2023/08/22 09:22:14;;;;;;;4.67;2.70;;;23.50;99.90;;;;;;5060578;28;20033;-51
2023/08/22 09:24:53;;;;;;;7.32;3.13;;;23.50;99.90;;;;;;5069487;28;20520;-54
2023/08/22 09:27:23;;;;;;;5.93;3.25;;;23.50;99.90;;;;;;5069782;28;20029;-53
2023/08/22 09:29:48;;;;;;;8.07;3.60;;;23.60;99.90;;;;;;5053440;28;20020;-50
2023/08/22 09:32:14;;;;;;;4.38;3.28;;;23.60;99.90;;;;;;5066720;28;20370;-46
2023/08/22 09:34:55;;;;;;;5.90;3.00;;;23.60;99.90;;;;;;5072811;28;20057;-42
2023/08/22 09:37:31;;;;;;;8.43;3.47;;;23.60;99.90;;;;;;5057952;28;20053;-41
2023/08/22 09:39:57;;;;;;;10.17;4.43;;;23.50;99.90;;;;;;5074491;28;20130;-52
2023/08/22 09:42:26;;;;;;;12.75;4.13;;;23.30;99.90;;;;;;5072310;28;20639;-54
2023/08/22 09:44:55;;;;;;;7.35;3.03;;;23.30;99.90;;;;;;5073951;28;20032;-46
2023/08/22 09:47:21;;;;;;;14.73;3.65;;;23.20;99.90;;;;;;5070822;28;20044;-54
2023/08/22 09:49:50;;;;;;;7.60;3.08;;;23.20;99.90;;;;;;5072847;28;20060;-53
2023/08/22 09:52:16;;;;;;;6.43;2.75;;;23.30;99.90;;;;;;5072758;28;20067;-53
2023/08/22 09:54:43;;;;;;;11.50;3.10;;;23.30;99.90;;;;;;5067397;28;20083;-52
2023/08/22 09:57:10;;;;;;;7.20;3.78;;;23.30;99.90;;;;;;5057104;28;20516;-52
2023/08/22 09:59:37;;;;;;;7.57;3.30;;;23.40;99.90;;;;;;5074778;28;20029;-53
2023/08/22 10:02:04;;;;;;;;;;;23.50;99.90;;;;;;5057727;28;20480;-53
2023/08/22 10:04:30;;;;;;;10.63;4.20;;;23.60;99.90;;;;;;5075416;28;19908;-53
2023/08/22 10:06:56;;;;;;;6.20;3.55;;;23.80;99.90;;;;;;5074877;28;20101;-53
2023/08/22 10:09:22;;;;;;;11.05;3.10;;;23.80;99.90;;;;;;5074066;28;20483;-49
2023/08/22 10:11:54;;;;;;;9.18;3.85;;;23.90;99.90;;;;;;5074776;28;20028;-51
2023/08/22 10:14:32;;;;;;;9.43;3.50;;;23.90;99.90;;;;;;5074868;28;20488;-52
2023/08/22 10:16:59;;;;;;;8.30;3.92;;;23.80;99.90;;;;;;5074504;28;20028;-51
2023/08/22 10:19:25;;;;;;;10.93;4.45;;;24.00;99.90;;;;;;5066755;28;20497;-53
2023/08/22 10:21:53;;;;;;;12.03;4.77;;;24.00;99.90;;;;;;5065636;28;20025;-53
2023/08/22 10:24:29;;;;;;;11.45;4.55;;;24.00;99.90;;;;;;5071538;28;20493;-53
2023/08/22 10:27:03;;;;;;;6.97;4.00;;;23.90;99.90;;;;;;5071960;28;20024;-51
2023/08/22 10:29:34;;;;;;;10.95;4.32;;;23.80;99.90;;;;;;5070677;28;20035;-52
2023/08/22 10:32:03;;;;;;;9.07;4.35;;;23.80;99.90;;;;;;5074925;28;20104;-52
2023/08/22 10:34:34;;;;;;;8.27;4.07;;;23.80;99.90;;;;;;5073430;28;20107;-53
2023/08/22 10:37:01;;;;;;;14.10;4.40;;;24.00;99.90;;;;;;5072688;28;20094;-54
2023/08/22 10:39:38;;;;;;;10.77;4.45;;;24.20;99.90;;;;;;5071103;28;20028;-52
2023/08/22 10:42:04;;;;;;;13.23;4.32;;;24.30;99.90;;;;;;5063519;28;20039;-51
2023/08/22 10:44:30;;;;;;;12.57;4.75;;;24.40;99.90;;;;;;5072547;28;20036;-53
2023/08/22 10:47:15;;;;;;;6.70;4.22;;;24.50;99.90;;;;;;5065302;28;20060;-52
2023/08/22 10:49:42;;;;;;;7.60;4.38;;;24.60;99.90;;;;;;5049398;28;20536;-53
2023/08/22 10:52:09;;;;;;;12.37;5.43;;;24.70;99.90;;;;;;5069577;28;20032;-51
2023/08/22 10:54:59;;;;;;;9.73;4.47;;;24.70;99.90;;;;;;5066986;28;20027;-53
2023/08/22 10:57:25;;;;;;;7.28;3.72;;;24.60;99.90;;;;;;5068932;28;20499;-53
2023/08/22 11:00:01;;;;;;;11.35;4.38;;;24.60;99.90;;;;;;5071601;28;20066;-50
2023/08/22 11:02:31;;;;;;;9.98;4.90;;;24.70;99.90;;;;;;5059367;28;20033;-52
2023/08/22 11:04:57;;;;;;;5.25;4.15;;;24.70;99.90;;;;;;5066767;28;20021;-50
2023/08/22 11:07:25;;;;;;;10.68;4.57;;;24.70;99.90;;;;;;5066834;28;20032;-50
2023/08/22 11:09:51;;;;;;;5.53;3.75;;;24.80;99.90;;;;;;5073814;28;20020;-52
2023/08/22 11:12:18;;;;;;;6.00;4.22;;;24.70;99.90;;;;;;5073739;28;20341;-46
2023/08/22 11:14:46;;;;;;;6.78;4.40;;;24.60;99.90;;;;;;5068629;28;20373;-53
2023/08/22 11:17:16;;;;;;;10.45;4.45;;;24.40;99.90;;;;;;5067996;28;20110;-50
2023/08/22 11:19:42;;;;;;;13.02;4.28;;;24.40;99.90;;;;;;5073034;28;20496;-52
2023/08/22 11:22:08;;;;;;;12.82;3.95;;;24.30;99.90;;;;;;5073572;28;20024;-54
2023/08/22 11:24:34;;;;;;;9.57;3.95;;;24.20;99.90;;;;;;5070864;28;20040;-50
2023/08/22 11:27:06;;;;;;;5.07;3.38;;;24.20;99.90;;;;;;5061690;28;20029;-51
2023/08/22 11:29:45;;;;;;;8.13;3.08;;;24.10;99.90;;;;;;5072614;28;20162;-41
2023/08/22 11:32:22;;;;;;;3.95;2.78;;;24.10;99.90;;;;;;5073422;28;20056;-41
2023/08/22 11:34:52;;;;;;;7.10;3.40;;;24.00;99.90;;;;;;5069874;28;20024;-39
2023/08/22 11:37:19;;;;;;;9.30;2.72;;;23.60;99.90;;;;;;5060145;28;20028;-44
2023/08/22 11:39:49;;;;;;;4.72;2.40;;;23.60;99.90;;;;;;5070866;28;20028;-41
2023/08/22 11:42:16;;;;;;;5.07;2.88;;;23.60;99.90;;;;;;5056023;28;20362;-40
2023/08/22 11:45:03;;;;;;;4.45;2.30;;;23.60;99.90;;;;;;5073254;28;20029;-44
2023/08/22 11:47:42;;;;;;;6.47;2.25;;;23.60;99.90;;;;;;5069640;28;20144;-38
2023/08/22 11:50:29;;;;;;;2.97;2.10;;;23.70;99.90;;;;;;5070031;28;20393;-40
2023/08/22 11:53:06;;;;;;;4.15;1.75;;;23.60;99.90;;;;;;5053797;28;20123;-42
2023/08/22 11:55:32;;;;;;;4.05;1.73;;;23.60;99.90;;;;;;5072109;28;20473;-42
2023/08/22 11:58:03;;;;;;;4.22;1.35;;;23.70;99.90;;;;;;5072895;28;20032;-45
2023/08/22 12:00:36;;;;;;;2.03;1.02;;;23.80;99.90;;;;;;5072800;28;20028;-50
2023/08/22 12:03:05;;;;;;;4.13;1.40;;;23.90;99.90;;;;;;5052962;28;20501;-50
2023/08/22 12:05:39;;;;;;;6.18;1.70;;;24.00;99.90;;;;;;5037505;28;20056;-47
2023/08/22 12:08:11;;;;;;;6.50;1.50;;;24.10;99.90;;;;;;5064816;28;20023;-49
2023/08/22 12:10:47;;;;;;;3.72;1.80;;;24.20;99.90;;;;;;5072638;28;20032;-53
2023/08/22 12:13:15;;;;;;;6.15;1.50;;;24.20;99.90;;;;;;5072698;28;20361;-51
2023/08/22 12:15:41;;;;;;;7.05;1.80;;;24.30;99.90;;;;;;5072692;28;20500;-52
2023/08/22 12:18:08;;;;;;;4.28;1.65;;;24.20;99.90;;;;;;5073101;28;20035;-53
2023/08/22 12:20:35;;;;;;;7.15;1.85;;;24.10;99.90;;;;;;5072619;28;20063;-53
2023/08/22 12:23:01;;;;;;;3.58;1.55;;;23.90;99.90;;;;;;5070642;28;20036;-53
2023/08/22 12:25:28;;;;;;;6.53;1.90;;;23.80;99.90;;;;;;5049900;28;20048;-53
2023/08/22 12:27:54;;;;;;;6.80;1.90;;;23.80;99.90;;;;;;5072726;28;20032;-53
2023/08/22 12:30:19;;;;;;;12.18;1.73;;;23.90;99.90;;;;;;5054945;28;20037;-53
2023/08/22 12:32:45;;;;;;;3.35;2.42;;;24.00;99.90;;;;;;5071123;28;20028;-52
2023/08/22 12:35:12;;;;;;;4.68;1.40;;;24.00;99.90;;;;;;5072639;28;20033;-52
2023/08/22 12:37:40;;;;;;;9.23;1.80;;;23.80;99.90;;;;;;5072691;28;20032;-54
2023/08/22 12:40:12;;;;;;;10.02;2.25;;;23.80;99.90;;;;;;5082350;28;20031;-43
2023/08/22 12:42:39;;;;;;;6.35;2.17;;;24.10;99.90;;;;;;5072658;28;20032;-39
2023/08/22 12:45:09;;;;;;;8.93;1.40;;;24.40;99.90;;;;;;5067879;28;20027;-42